createdAt,value
2019-02-24T00:01:51.927Z,30.10
2019-02-24T00:04:26.716Z,30.53
2019-02-24T00:07:01.508Z,29.60
2019-02-24T00:09:36.278Z,29.53
2019-02-24T00:12:11.191Z,29.87
2019-02-24T00:14:45.971Z,29.87
2019-02-24T00:17:20.687Z,29.67
2019-02-24T00:19:55.395Z,30.00
2019-02-24T00:22:30.148Z,30.43
2019-02-24T00:25:05.262Z,31.03
2019-02-24T00:27:39.981Z,31.23
2019-02-24T00:30:14.701Z,30.50
2019-02-24T00:32:49.423Z,31.00
2019-02-24T00:35:24.201Z,30.30
2019-02-24T00:37:58.912Z,31.03
2019-02-24T00:40:33.615Z,30.10
2019-02-24T00:43:08.375Z,30.80
2019-02-24T00:45:43.290Z,29.83
2019-02-24T00:48:18.101Z,30.37
2019-02-24T00:50:52.794Z,29.80
2019-02-24T00:53:27.519Z,30.13
2019-02-24T00:56:02.755Z,30.53
2019-02-24T00:58:37.489Z,29.73
2019-02-24T01:01:12.196Z,29.90
2019-02-24T01:03:48.083Z,30.57
2019-02-24T01:06:22.811Z,30.20
2019-02-24T01:08:57.983Z,29.90
2019-02-24T01:11:32.807Z,30.30
2019-02-24T01:14:07.607Z,29.57
2019-02-24T01:16:42.315Z,29.87
2019-02-24T01:19:17.020Z,29.00
2019-02-24T01:21:51.718Z,30.47
2019-02-24T01:24:26.427Z,30.63
2019-02-24T01:27:01.130Z,30.87
2019-02-24T01:29:36.957Z,31.33
2019-02-24T01:32:11.735Z,32.37
2019-02-24T01:34:46.450Z,31.67
2019-02-24T01:37:21.150Z,30.20
2019-02-24T01:39:55.859Z,30.93
2019-02-24T01:42:30.565Z,30.60
2019-02-24T01:45:06.155Z,31.82
2019-02-24T01:47:40.861Z,30.70
2019-02-24T01:50:15.695Z,32.00
2019-02-24T01:52:50.408Z,31.00
2019-02-24T01:55:25.115Z,30.93
2019-02-24T01:57:59.819Z,30.73
2019-02-24T02:00:34.619Z,30.27
2019-02-24T02:03:09.403Z,30.77
2019-02-24T02:05:44.108Z,30.57
2019-02-24T02:08:18.891Z,30.47
2019-02-24T02:10:53.615Z,29.80
2019-02-24T02:13:28.326Z,30.97
2019-02-24T02:16:03.039Z,29.67
2019-02-24T02:18:37.748Z,30.50
2019-02-24T02:21:12.471Z,30.67
2019-02-24T02:23:47.159Z,30.53
2019-02-24T02:26:22.028Z,30.33
2019-02-24T02:28:56.740Z,30.30
2019-02-24T02:31:31.460Z,30.93
2019-02-24T02:34:06.180Z,30.50
2019-02-24T02:36:40.904Z,30.27
2019-02-24T02:39:15.627Z,30.53
2019-02-24T02:41:50.347Z,29.77
2019-02-24T02:44:25.078Z,29.77
2019-02-24T02:46:59.792Z,29.50
2019-02-24T02:49:34.524Z,29.70
2019-02-24T02:52:09.307Z,31.30
2019-02-24T02:54:44.018Z,30.50
2019-02-24T02:57:18.715Z,29.80
2019-02-24T02:59:53.439Z,29.63
2019-02-24T03:02:28.212Z,29.90
2019-02-24T03:05:02.920Z,29.67
2019-02-24T03:07:53.263Z,29.43
2019-02-24T03:10:28.002Z,28.77
2019-02-24T03:13:03.782Z,29.47
2019-02-24T03:15:38.511Z,29.37
2019-02-24T03:18:13.223Z,29.23
2019-02-24T03:20:47.931Z,28.67
2019-02-24T03:23:22.636Z,30.13
2019-02-24T03:25:57.355Z,29.37
2019-02-24T03:28:32.136Z,29.67
2019-02-24T03:31:06.848Z,29.83
2019-02-24T03:33:44.729Z,28.53
2019-02-24T03:36:17.991Z,29.40
2019-02-24T03:38:52.693Z,29.03
2019-02-24T03:41:27.405Z,29.37
2019-02-24T03:44:02.180Z,28.53
2019-02-24T03:46:36.892Z,27.63
2019-02-24T03:49:11.592Z,29.13
2019-02-24T03:51:46.299Z,28.67
2019-02-24T03:54:21.004Z,29.63
2019-02-24T03:56:57.352Z,29.57
2019-02-24T03:59:32.339Z,29.27
2019-02-24T04:02:07.160Z,30.67
2019-02-24T04:04:42.081Z,29.43
2019-02-24T04:07:16.879Z,28.53
2019-02-24T04:09:51.628Z,29.10
2019-02-24T04:12:26.456Z,28.70
2019-02-24T04:15:01.258Z,28.77
2019-02-24T04:17:36.083Z,28.13
2019-02-24T04:20:10.915Z,28.77
2019-02-24T04:22:45.655Z,29.40
2019-02-24T04:25:20.407Z,29.07
2019-02-24T04:27:55.145Z,28.87
2019-02-24T04:30:29.880Z,29.43
2019-02-24T04:33:04.784Z,28.13
2019-02-24T04:35:39.530Z,29.70
2019-02-24T04:38:15.974Z,27.97
2019-02-24T04:40:50.959Z,28.17
2019-02-24T04:43:25.715Z,28.77
2019-02-24T04:46:00.451Z,28.13
2019-02-24T04:48:35.268Z,28.47
2019-02-24T04:51:10.003Z,28.47
2019-02-24T04:53:44.818Z,29.50
2019-02-24T04:56:19.541Z,29.13
2019-02-24T04:58:54.283Z,28.87
2019-02-24T05:01:29.087Z,29.97
2019-02-24T05:04:03.905Z,29.23
2019-02-24T05:06:38.644Z,28.70
2019-02-24T05:09:13.371Z,28.37
2019-02-24T05:11:48.133Z,29.20
2019-02-24T05:14:22.948Z,29.17
2019-02-24T05:16:57.698Z,29.07
2019-02-24T05:19:32.491Z,29.13
2019-02-24T05:22:07.311Z,30.17
2019-02-24T05:24:42.114Z,30.33
2019-02-24T05:27:16.859Z,30.33
2019-02-24T05:29:51.675Z,29.97
2019-02-24T05:32:28.575Z,29.20
2019-02-24T05:35:03.456Z,30.53
2019-02-24T05:37:38.260Z,29.17
2019-02-24T05:40:13.065Z,29.37
2019-02-24T05:42:47.814Z,28.73
2019-02-24T05:45:22.540Z,28.90
2019-02-24T05:47:58.257Z,28.77
2019-02-24T05:50:32.978Z,28.50
2019-02-24T05:53:07.733Z,29.10
2019-02-24T05:55:42.467Z,30.37
2019-02-24T05:58:17.281Z,29.17
2019-02-24T06:00:52.088Z,28.27
2019-02-24T06:03:26.838Z,29.23
2019-02-24T06:06:01.563Z,28.00
2019-02-24T06:08:36.317Z,28.00
2019-02-24T06:11:11.068Z,27.67
2019-02-24T06:13:45.800Z,28.40
2019-02-24T06:16:20.600Z,27.60
2019-02-24T06:18:55.347Z,27.93
2019-02-24T06:21:30.096Z,29.07
2019-02-24T06:24:04.974Z,28.43
2019-02-24T06:26:39.704Z,28.03
2019-02-24T06:29:14.467Z,28.57
2019-02-24T06:31:49.344Z,28.67
2019-02-24T06:34:25.120Z,28.60
2019-02-24T06:36:59.923Z,27.80
2019-02-24T06:39:34.747Z,28.17
2019-02-24T06:42:09.482Z,27.77
2019-02-24T06:44:44.219Z,28.07
2019-02-24T06:47:18.940Z,27.90
2019-02-24T06:49:54.699Z,28.30
2019-02-24T06:52:29.417Z,27.63
2019-02-24T06:55:04.438Z,28.03
2019-02-24T06:57:39.175Z,28.53
2019-02-24T07:00:14.499Z,29.90
2019-02-24T07:02:49.367Z,30.20
2019-02-24T07:05:24.115Z,29.63
2019-02-24T07:07:58.839Z,29.20
2019-02-24T07:10:33.575Z,29.43
2019-02-24T07:13:08.307Z,34.43
2019-02-24T07:15:43.040Z,29.47
2019-02-24T07:18:17.864Z,29.93
2019-02-24T07:20:52.790Z,30.40
2019-02-24T07:23:27.871Z,31.27
2019-02-24T07:26:02.749Z,30.33
2019-02-24T07:28:37.475Z,28.90
2019-02-24T07:31:12.290Z,28.83
2019-02-24T07:33:47.313Z,29.40
2019-02-24T07:36:22.232Z,28.93
2019-02-24T07:38:57.551Z,28.57
2019-02-24T07:41:32.683Z,29.60
2019-02-24T07:44:07.419Z,29.17
2019-02-24T07:46:42.155Z,29.60
2019-02-24T07:49:16.905Z,28.80
2019-02-24T07:51:51.655Z,29.23
2019-02-24T07:54:26.400Z,29.67
2019-02-24T07:57:01.311Z,28.93
2019-02-24T07:59:36.143Z,29.87
2019-02-24T08:02:11.935Z,29.17
2019-02-24T08:04:46.659Z,28.47
2019-02-24T08:07:21.400Z,28.30
2019-02-24T08:09:56.206Z,28.83
2019-02-24T08:12:30.959Z,29.20
2019-02-24T08:15:06.516Z,29.40
2019-02-24T08:17:41.303Z,28.43
2019-02-24T08:20:16.124Z,28.57
2019-02-24T08:22:50.981Z,29.40
2019-02-24T08:25:25.935Z,30.07
2019-02-24T08:28:01.662Z,29.63
2019-02-24T08:30:41.705Z,29.10
2019-02-24T08:33:13.073Z,29.13
2019-02-24T08:35:47.818Z,29.07
2019-02-24T08:38:22.731Z,30.07
2019-02-24T08:40:57.487Z,28.53
2019-02-24T08:43:32.187Z,30.50
2019-02-24T08:46:06.931Z,30.40
2019-02-24T08:48:41.747Z,30.83
2019-02-24T08:51:16.482Z,30.87
2019-02-24T08:53:51.511Z,30.57
2019-02-24T08:56:26.327Z,30.77
2019-02-24T08:59:01.229Z,30.57
2019-02-24T09:01:36.243Z,31.10
2019-02-24T09:04:17.059Z,31.30
2019-02-24T09:06:51.948Z,30.73
2019-02-24T09:09:26.671Z,30.70
2019-02-24T09:12:01.823Z,31.80
2019-02-24T09:14:36.620Z,38.03
2019-02-24T09:17:11.500Z,31.37
2019-02-24T09:19:46.439Z,31.37
2019-02-24T09:22:21.269Z,30.03
2019-02-24T09:24:56.835Z,31.33
2019-02-24T09:27:34.118Z,31.00
2019-02-24T09:30:09.680Z,29.93
2019-02-24T09:32:46.051Z,30.10
2019-02-24T09:35:20.868Z,29.93
2019-02-24T09:37:55.816Z,28.90
2019-02-24T09:40:30.672Z,29.07
2019-02-24T09:43:05.423Z,30.63
2019-02-24T09:45:40.214Z,29.13
2019-02-24T09:48:14.983Z,29.23
2019-02-24T09:50:49.795Z,28.97
2019-02-24T09:53:24.527Z,29.83
2019-02-24T09:55:59.411Z,30.57
2019-02-24T09:58:34.265Z,30.07
2019-02-24T10:01:10.954Z,29.57
2019-02-24T10:03:45.699Z,30.40
2019-02-24T10:06:20.511Z,30.00
2019-02-24T10:08:55.351Z,33.70
2019-02-24T10:11:30.211Z,30.70
2019-02-24T10:14:05.263Z,29.53
2019-02-24T10:16:40.093Z,29.63
2019-02-24T10:19:14.888Z,29.73
2019-02-24T10:21:49.648Z,29.90
2019-02-24T10:24:34.855Z,30.70
2019-02-24T10:27:09.659Z,31.30
2019-02-24T10:29:44.529Z,30.03
2019-02-24T10:32:19.275Z,30.73
2019-02-24T10:34:54.016Z,30.60
2019-02-24T10:37:28.856Z,30.13
2019-02-24T10:40:04.112Z,29.53
2019-02-24T10:42:38.976Z,31.13
2019-02-24T10:45:13.955Z,30.53
2019-02-24T10:47:48.709Z,29.20
2019-02-24T10:50:23.623Z,29.27
2019-02-24T10:52:58.355Z,30.50
2019-02-24T10:55:33.371Z,29.83
2019-02-24T10:58:08.314Z,29.80
2019-02-24T11:00:43.271Z,29.67
2019-02-24T11:03:18.011Z,30.13
2019-02-24T11:05:52.803Z,29.57
2019-02-24T11:08:27.625Z,29.50
2019-02-24T11:11:02.355Z,29.70
2019-02-24T11:13:37.214Z,29.97
2019-02-24T11:16:12.034Z,29.97
2019-02-24T11:18:46.947Z,29.23
2019-02-24T11:21:21.714Z,30.40
2019-02-24T11:23:56.579Z,29.60
2019-02-24T11:26:31.311Z,30.20
2019-02-24T11:29:06.046Z,30.30
2019-02-24T11:31:40.792Z,30.37
2019-02-24T11:34:15.535Z,30.33
2019-02-24T11:36:50.358Z,29.43
2019-02-24T11:39:26.935Z,29.43
2019-02-24T11:42:02.851Z,30.17
2019-02-24T11:44:37.563Z,30.23
2019-02-24T11:47:12.299Z,29.33
2019-02-24T11:49:47.174Z,29.97
2019-02-24T11:52:21.911Z,29.77
2019-02-24T11:54:56.627Z,30.47
2019-02-24T11:57:31.359Z,29.70
2019-02-24T12:00:06.407Z,30.10
2019-02-24T12:02:42.291Z,30.23
2019-02-24T12:05:17.019Z,29.70
2019-02-24T12:07:51.776Z,30.27
2019-02-24T12:10:26.583Z,29.77
2019-02-24T12:13:01.361Z,29.83
2019-02-24T12:15:37.086Z,29.90
2019-02-24T12:18:11.906Z,29.80
2019-02-24T12:20:46.694Z,28.83
2019-02-24T12:23:21.507Z,31.90
2019-02-24T12:25:56.303Z,32.33
2019-02-24T12:28:31.243Z,29.97
2019-02-24T12:31:07.090Z,31.43
2019-02-24T12:33:41.833Z,30.27
2019-02-24T12:36:16.595Z,31.03
2019-02-24T12:38:52.590Z,30.20
2019-02-24T12:41:27.527Z,31.43
2019-02-24T12:44:02.467Z,31.23
2019-02-24T12:46:37.371Z,30.60
2019-02-24T12:49:12.187Z,30.47
2019-02-24T12:51:47.058Z,30.67
2019-02-24T12:54:21.799Z,30.67
2019-02-24T12:56:56.520Z,31.10
2019-02-24T12:59:31.430Z,32.20
2019-02-24T13:02:06.299Z,32.43
2019-02-24T13:04:41.127Z,32.37
2019-02-24T13:07:15.866Z,30.97
2019-02-24T13:09:50.696Z,32.90
2019-02-24T13:12:25.699Z,30.40
2019-02-24T13:15:00.520Z,31.53
2019-02-24T13:17:35.400Z,31.43
2019-02-24T13:20:10.483Z,30.80
2019-02-24T13:22:45.319Z,30.77
2019-02-24T13:25:20.150Z,31.47
2019-02-24T13:27:54.952Z,31.77
2019-02-24T13:30:29.803Z,32.87
2019-02-24T13:33:04.623Z,31.47
2019-02-24T13:35:40.665Z,31.90
2019-02-24T13:38:15.767Z,30.57
2019-02-24T13:40:50.603Z,30.97
2019-02-24T13:43:25.679Z,32.13
2019-02-24T13:46:00.416Z,32.13
2019-02-24T13:48:36.235Z,30.73
2019-02-24T13:51:11.043Z,31.43
2019-02-24T13:53:45.797Z,32.57
2019-02-24T13:56:20.520Z,32.53
2019-02-24T13:58:55.330Z,32.33
2019-02-24T14:01:30.139Z,34.23
2019-02-24T14:04:05.060Z,32.87
2019-02-24T14:06:39.796Z,32.30
2019-02-24T14:09:14.903Z,32.37
2019-02-24T14:11:49.650Z,31.70
2019-02-24T14:14:24.435Z,32.67
2019-02-24T14:16:59.376Z,32.77
2019-02-24T14:19:35.351Z,31.73
2019-02-24T14:22:10.228Z,32.30
2019-02-24T14:24:44.979Z,32.23
2019-02-24T14:27:19.720Z,31.67
2019-02-24T14:29:54.480Z,31.37
2019-02-24T14:32:33.002Z,31.43
2019-02-24T14:35:07.867Z,30.88
2019-02-24T14:37:42.689Z,31.57
2019-02-24T14:40:17.495Z,30.87
2019-02-24T14:42:53.276Z,31.10
2019-02-24T14:45:28.009Z,30.90
2019-02-24T14:48:02.811Z,29.90
2019-02-24T14:50:37.559Z,30.87
2019-02-24T14:53:12.525Z,31.27
2019-02-24T14:55:47.423Z,31.13
2019-02-24T14:58:22.156Z,31.77
2019-02-24T15:00:56.995Z,31.93
2019-02-24T15:03:31.819Z,31.43
2019-02-24T15:06:06.620Z,31.20
2019-02-24T15:08:41.624Z,31.00
2019-02-24T15:11:16.401Z,31.37
2019-02-24T15:13:51.132Z,31.00
2019-02-24T15:16:25.879Z,31.53
2019-02-24T15:19:00.745Z,31.00
2019-02-24T15:21:35.521Z,31.93
2019-02-24T15:24:10.323Z,32.37
2019-02-24T15:26:45.232Z,32.90
2019-02-24T15:29:20.044Z,32.50
2019-02-24T15:31:54.939Z,31.67
2019-02-24T15:34:29.836Z,31.20
2019-02-24T15:37:04.857Z,31.70
2019-02-24T15:39:39.607Z,32.60
2019-02-24T15:42:14.355Z,31.73
2019-02-24T15:44:49.087Z,31.60
2019-02-24T15:47:23.830Z,31.67
2019-02-24T15:49:58.559Z,31.67
2019-02-24T15:52:33.392Z,31.47
2019-02-24T15:55:08.353Z,34.20
2019-02-24T15:57:43.336Z,32.13
2019-02-24T16:00:28.706Z,33.97
2019-02-24T16:03:03.452Z,32.17
2019-02-24T16:05:38.181Z,31.93
2019-02-24T16:08:12.911Z,31.30
2019-02-24T16:10:47.739Z,31.33
2019-02-24T16:13:22.728Z,31.73
2019-02-24T16:15:57.554Z,31.43
2019-02-24T16:18:32.299Z,31.77
2019-02-24T16:21:07.060Z,31.97
2019-02-24T16:23:41.878Z,32.10
2019-02-24T16:26:17.518Z,32.70
2019-02-24T16:28:52.424Z,36.83
2019-02-24T16:31:27.183Z,33.23
2019-02-24T16:34:01.940Z,32.60
2019-02-24T16:36:36.855Z,32.23
2019-02-24T16:39:11.660Z,32.57
2019-02-24T16:41:46.487Z,33.13
2019-02-24T16:44:21.636Z,33.00
2019-02-24T16:46:56.562Z,32.20
2019-02-24T16:49:31.296Z,33.07
2019-02-24T16:52:06.124Z,33.13
2019-02-24T16:54:41.003Z,33.07
2019-02-24T16:57:15.871Z,32.30
2019-02-24T16:59:50.694Z,41.30
2019-02-24T17:02:25.779Z,36.53
2019-02-24T17:05:00.673Z,35.13
2019-02-24T17:07:41.287Z,33.03
2019-02-24T17:10:18.537Z,40.20
2019-02-24T17:12:53.409Z,34.60
2019-02-24T17:15:28.427Z,39.80
2019-02-24T17:18:03.218Z,40.67
2019-02-24T17:20:40.080Z,36.27
2019-02-24T17:23:14.906Z,33.10
2019-02-24T17:25:52.914Z,33.67
2019-02-24T17:28:27.535Z,33.93
2019-02-24T17:31:02.530Z,33.80
2019-02-24T17:33:38.518Z,33.47
2019-02-24T17:36:15.373Z,34.33
2019-02-24T17:38:50.195Z,35.97
2019-02-24T17:41:25.023Z,35.17
2019-02-24T17:44:00.074Z,33.73
2019-02-24T17:46:35.467Z,32.20
2019-02-24T17:49:10.231Z,33.40
2019-02-24T17:51:46.071Z,34.23
2019-02-24T17:54:21.203Z,35.97
2019-02-24T17:56:56.015Z,33.70
2019-02-24T17:59:40.224Z,33.37
2019-02-24T18:02:08.700Z,32.77
2019-02-24T18:04:43.439Z,33.33
2019-02-24T18:07:18.215Z,34.17
2019-02-24T18:09:53.131Z,34.10
2019-02-24T18:12:27.961Z,35.50
2019-02-24T18:15:02.864Z,34.93
2019-02-24T18:17:39.586Z,35.23
2019-02-24T18:20:16.933Z,34.63
2019-02-24T18:22:53.967Z,33.80
2019-02-24T18:25:28.846Z,35.17
2019-02-24T18:28:03.741Z,35.93
2019-02-24T18:30:38.942Z,37.63
2019-02-24T18:33:13.776Z,33.93
2019-02-24T18:35:48.524Z,33.33
2019-02-24T18:38:23.332Z,33.40
2019-02-24T18:40:58.076Z,32.97
2019-02-24T18:43:32.908Z,32.60
2019-02-24T18:46:07.819Z,32.27
2019-02-24T18:48:42.649Z,32.57
2019-02-24T18:51:17.408Z,33.37
2019-02-24T18:53:52.226Z,32.93
2019-02-24T18:56:27.051Z,33.50
2019-02-24T18:59:01.869Z,35.27
2019-02-24T19:01:36.595Z,35.87
2019-02-24T19:04:11.350Z,35.70
2019-02-24T19:06:46.083Z,36.43
2019-02-24T19:09:20.819Z,37.77
2019-02-24T19:11:55.623Z,34.23
2019-02-24T19:14:30.359Z,35.10
2019-02-24T19:17:05.147Z,33.97
2019-02-24T19:19:39.909Z,32.60
2019-02-24T19:22:14.651Z,34.47
2019-02-24T19:24:49.492Z,33.83
2019-02-24T19:27:24.448Z,39.60
2019-02-24T19:29:59.180Z,36.83
2019-02-24T19:32:34.099Z,38.00
2019-02-24T19:35:09.829Z,36.13
2019-02-24T19:37:44.837Z,34.23
2019-02-24T19:40:19.830Z,38.53
2019-02-24T19:42:54.627Z,34.87
2019-02-24T19:45:29.583Z,33.43
2019-02-24T19:48:04.518Z,34.77
2019-02-24T19:50:39.462Z,35.10
2019-02-24T19:53:14.273Z,34.13
2019-02-24T19:55:49.054Z,33.87
2019-02-24T19:58:23.977Z,33.30
2019-02-24T20:00:58.751Z,35.03
2019-02-24T20:03:33.792Z,34.20
2019-02-24T20:06:08.620Z,34.40
2019-02-24T20:08:43.463Z,34.77
2019-02-24T20:11:18.405Z,34.73
2019-02-24T20:13:53.153Z,34.37
2019-02-24T20:16:28.101Z,35.30
2019-02-24T20:19:02.850Z,38.80
2019-02-24T20:21:37.734Z,35.00
2019-02-24T20:24:12.715Z,37.20
2019-02-24T20:26:47.541Z,35.23
2019-02-24T20:29:22.403Z,35.53
2019-02-24T20:31:57.241Z,36.13
2019-02-24T20:34:32.088Z,35.70
2019-02-24T20:37:06.955Z,34.37
2019-02-24T20:39:41.871Z,34.00
2019-02-24T20:42:19.589Z,34.13
2019-02-24T20:44:54.487Z,34.67
2019-02-24T20:47:29.408Z,34.47
2019-02-24T20:50:04.761Z,35.17
2019-02-24T20:52:39.476Z,36.73
2019-02-24T20:55:14.447Z,34.97
2019-02-24T20:57:49.203Z,36.87
2019-02-24T21:00:26.607Z,34.03
2019-02-24T21:03:01.617Z,33.27
2019-02-24T21:05:36.662Z,32.97
2019-02-24T21:08:11.547Z,33.87
2019-02-24T21:10:46.303Z,33.60
2019-02-24T21:13:21.039Z,33.87
2019-02-24T21:15:55.871Z,32.87
2019-02-24T21:18:30.669Z,32.63
2019-02-24T21:21:05.592Z,31.87
2019-02-24T21:23:40.551Z,32.23
2019-02-24T21:26:15.307Z,32.50
2019-02-24T21:28:50.064Z,33.27
2019-02-24T21:31:24.783Z,34.57
2019-02-24T21:33:59.503Z,34.30
2019-02-24T21:36:34.476Z,40.20
2019-02-24T21:39:09.279Z,38.17
2019-02-24T21:41:45.663Z,33.83
2019-02-24T21:44:20.392Z,35.50
2019-02-24T21:46:55.249Z,33.47
2019-02-24T21:49:29.988Z,49.90
2019-02-24T21:52:04.882Z,42.53
2019-02-24T21:54:39.603Z,34.90
2019-02-24T21:57:14.431Z,33.53
2019-02-24T21:59:49.159Z,33.40
2019-02-24T22:02:23.902Z,33.67
2019-02-24T22:04:58.636Z,33.40
2019-02-24T22:07:33.366Z,35.60
2019-02-24T22:10:09.267Z,33.47
2019-02-24T22:12:44.199Z,32.57
2019-02-24T22:15:19.128Z,35.50
2019-02-24T22:17:53.951Z,35.93
2019-02-24T22:20:28.753Z,42.03
2019-02-24T22:23:03.581Z,37.30
2019-02-24T22:25:38.340Z,34.93
2019-02-24T22:28:13.235Z,35.70
2019-02-24T22:30:47.983Z,32.37
2019-02-24T22:33:22.717Z,32.33
2019-02-24T22:35:57.560Z,33.83
2019-02-24T22:38:32.300Z,33.57
2019-02-24T22:41:07.048Z,33.43
2019-02-24T22:43:41.773Z,32.90
2019-02-24T22:46:16.587Z,33.30
2019-02-24T22:48:51.318Z,33.80
2019-02-24T22:51:26.083Z,33.67
2019-02-24T22:54:00.876Z,34.70
2019-02-24T22:56:35.680Z,35.10
2019-02-24T22:59:10.819Z,33.13
2019-02-24T23:01:46.679Z,33.20
2019-02-24T23:04:21.702Z,32.67
2019-02-24T23:06:56.517Z,34.43
2019-02-24T23:09:31.324Z,33.13
2019-02-24T23:12:06.223Z,32.87
2019-02-24T23:14:41.039Z,32.47
2019-02-24T23:17:15.782Z,33.40
2019-02-24T23:19:50.510Z,32.13
2019-02-24T23:22:25.327Z,32.50
2019-02-24T23:25:00.068Z,31.70
2019-02-24T23:27:35.059Z,32.43
2019-02-24T23:30:10.025Z,34.33
2019-02-24T23:32:44.838Z,33.57
2019-02-24T23:35:20.603Z,32.87
2019-02-24T23:37:55.412Z,31.63
2019-02-24T23:40:30.216Z,31.73
2019-02-24T23:43:05.307Z,33.30
2019-02-24T23:45:40.043Z,33.60
2019-02-24T23:48:14.786Z,33.10
2019-02-24T23:50:49.535Z,32.40
2019-02-24T23:53:24.281Z,33.57
2019-02-24T23:55:59.005Z,32.93
2019-02-24T23:58:33.741Z,32.70
